sensor_id;sensor_type;location;lat;lon;timestamp;P1;durP1;ratioP1;P2;durP2;ratioP2
7575;SDS011;3829;50.798;4.358;2022-10-16T00:00:30;1.53;;;1.20;;
7575;SDS011;3829;50.798;4.358;2022-10-16T00:02:56;2.10;;;1.10;;
7575;SDS011;3829;50.798;4.358;2022-10-16T00:05:21;2.13;;;1.40;;
7575;SDS011;3829;50.798;4.358;2022-10-16T00:07:47;2.10;;;1.30;;
7575;SDS011;3829;50.798;4.358;2022-10-16T00:10:12;1.00;;;1.00;;
7575;SDS011;3829;50.798;4.358;2022-10-16T00:12:38;2.10;;;1.57;;
7575;SDS011;3829;50.798;4.358;2022-10-16T00:15:04;2.87;;;1.10;;
7575;SDS011;3829;50.798;4.358;2022-10-16T00:17:30;3.27;;;1.10;;
7575;SDS011;3829;50.798;4.358;2022-10-16T00:19:56;2.57;;;1.40;;
7575;SDS011;3829;50.798;4.358;2022-10-16T00:22:22;3.27;;;1.37;;
7575;SDS011;3829;50.798;4.358;2022-10-16T00:24:48;1.70;;;1.00;;
7575;SDS011;3829;50.798;4.358;2022-10-16T00:27:13;5.57;;;1.40;;
7575;SDS011;3829;50.798;4.358;2022-10-16T00:29:39;2.07;;;1.20;;
7575;SDS011;3829;50.798;4.358;2022-10-16T00:32:05;1.87;;;1.20;;
7575;SDS011;3829;50.798;4.358;2022-10-16T00:34:30;1.40;;;1.07;;
7575;SDS011;3829;50.798;4.358;2022-10-16T00:36:56;3.00;;;1.10;;
7575;SDS011;3829;50.798;4.358;2022-10-16T00:39:21;2.37;;;1.27;;
7575;SDS011;3829;50.798;4.358;2022-10-16T00:41:47;1.97;;;1.30;;
7575;SDS011;3829;50.798;4.358;2022-10-16T00:47:22;3.03;;;1.20;;
7575;SDS011;3829;50.798;4.358;2022-10-16T00:49:55;3.37;;;1.10;;
7575;SDS011;3829;50.798;4.358;2022-10-16T00:52:24;1.50;;;1.40;;
7575;SDS011;3829;50.798;4.358;2022-10-16T00:54:50;1.20;;;1.10;;
7575;SDS011;3829;50.798;4.358;2022-10-16T00:57:18;2.60;;;1.20;;
7575;SDS011;3829;50.798;4.358;2022-10-16T00:59:44;2.57;;;1.30;;
7575;SDS011;3829;50.798;4.358;2022-10-16T01:02:12;2.57;;;1.20;;
7575;SDS011;3829;50.798;4.358;2022-10-16T01:04:45;1.83;;;1.33;;
7575;SDS011;3829;50.798;4.358;2022-10-16T01:09:47;2.00;;;1.20;;
7575;SDS011;3829;50.798;4.358;2022-10-16T01:15:37;8.27;;;1.73;;
7575;SDS011;3829;50.798;4.358;2022-10-16T01:18:16;1.43;;;1.30;;
7575;SDS011;3829;50.798;4.358;2022-10-16T01:20:50;2.00;;;1.30;;
7575;SDS011;3829;50.798;4.358;2022-10-16T01:23:24;3.93;;;1.37;;
7575;SDS011;3829;50.798;4.358;2022-10-16T01:28:45;3.03;;;1.20;;
7575;SDS011;3829;50.798;4.358;2022-10-16T01:31:25;2.17;;;1.43;;
7575;SDS011;3829;50.798;4.358;2022-10-16T01:34:07;1.70;;;1.43;;
7575;SDS011;3829;50.798;4.358;2022-10-16T01:37:07;2.40;;;1.57;;
7575;SDS011;3829;50.798;4.358;2022-10-16T01:39:39;4.40;;;1.50;;
7575;SDS011;3829;50.798;4.358;2022-10-16T01:42:17;2.70;;;1.40;;
7575;SDS011;3829;50.798;4.358;2022-10-16T01:44:47;1.50;;;1.40;;
7575;SDS011;3829;50.798;4.358;2022-10-16T01:47:13;1.93;;;1.40;;
7575;SDS011;3829;50.798;4.358;2022-10-16T01:49:40;6.23;;;1.17;;
7575;SDS011;3829;50.798;4.358;2022-10-16T01:52:12;2.50;;;1.50;;
7575;SDS011;3829;50.798;4.358;2022-10-16T01:54:43;1.93;;;1.40;;
7575;SDS011;3829;50.798;4.358;2022-10-16T01:57:12;1.63;;;1.40;;
7575;SDS011;3829;50.798;4.358;2022-10-16T01:59:40;1.57;;;1.43;;
7575;SDS011;3829;50.798;4.358;2022-10-16T02:02:09;3.40;;;1.57;;
7575;SDS011;3829;50.798;4.358;2022-10-16T02:04:38;2.97;;;1.30;;
7575;SDS011;3829;50.798;4.358;2022-10-16T02:07:10;3.77;;;1.50;;
7575;SDS011;3829;50.798;4.358;2022-10-16T02:09:37;6.30;;;1.77;;
7575;SDS011;3829;50.798;4.358;2022-10-16T02:12:06;5.10;;;1.40;;
7575;SDS011;3829;50.798;4.358;2022-10-16T02:14:40;3.50;;;1.63;;
7575;SDS011;3829;50.798;4.358;2022-10-16T02:17:10;3.33;;;1.57;;
7575;SDS011;3829;50.798;4.358;2022-10-16T02:19:38;3.13;;;1.97;;
7575;SDS011;3829;50.798;4.358;2022-10-16T02:22:04;6.83;;;1.60;;
7575;SDS011;3829;50.798;4.358;2022-10-16T02:24:33;1.87;;;1.70;;
7575;SDS011;3829;50.798;4.358;2022-10-16T02:29:33;2.67;;;1.60;;
7575;SDS011;3829;50.798;4.358;2022-10-16T02:32:06;2.30;;;1.57;;
7575;SDS011;3829;50.798;4.358;2022-10-16T02:34:35;2.73;;;1.93;;
7575;SDS011;3829;50.798;4.358;2022-10-16T02:37:01;2.57;;;1.73;;
7575;SDS011;3829;50.798;4.358;2022-10-16T02:39:29;2.57;;;1.63;;
7575;SDS011;3829;50.798;4.358;2022-10-16T02:41:55;4.43;;;2.60;;
7575;SDS011;3829;50.798;4.358;2022-10-16T02:44:21;1.83;;;1.50;;
7575;SDS011;3829;50.798;4.358;2022-10-16T02:46:46;2.43;;;1.70;;
7575;SDS011;3829;50.798;4.358;2022-10-16T02:49:12;3.93;;;2.30;;
7575;SDS011;3829;50.798;4.358;2022-10-16T02:51:37;4.77;;;1.80;;
7575;SDS011;3829;50.798;4.358;2022-10-16T02:54:03;3.13;;;1.90;;
7575;SDS011;3829;50.798;4.358;2022-10-16T02:56:28;5.77;;;1.77;;
7575;SDS011;3829;50.798;4.358;2022-10-16T02:58:55;1.93;;;1.67;;
7575;SDS011;3829;50.798;4.358;2022-10-16T03:01:20;6.40;;;2.10;;
7575;SDS011;3829;50.798;4.358;2022-10-16T03:03:46;2.63;;;1.70;;
7575;SDS011;3829;50.798;4.358;2022-10-16T03:06:11;3.90;;;1.90;;
7575;SDS011;3829;50.798;4.358;2022-10-16T03:08:37;5.13;;;1.70;;
7575;SDS011;3829;50.798;4.358;2022-10-16T03:11:03;6.27;;;2.10;;
7575;SDS011;3829;50.798;4.358;2022-10-16T03:13:29;5.90;;;2.10;;
7575;SDS011;3829;50.798;4.358;2022-10-16T03:15:54;1.97;;;1.50;;
7575;SDS011;3829;50.798;4.358;2022-10-16T03:18:20;7.47;;;2.00;;
7575;SDS011;3829;50.798;4.358;2022-10-16T03:20:46;4.20;;;2.30;;
7575;SDS011;3829;50.798;4.358;2022-10-16T03:23:11;5.63;;;1.80;;
7575;SDS011;3829;50.798;4.358;2022-10-16T03:25:37;4.47;;;1.90;;
7575;SDS011;3829;50.798;4.358;2022-10-16T03:28:03;2.17;;;1.97;;
7575;SDS011;3829;50.798;4.358;2022-10-16T03:30:29;3.53;;;1.73;;
7575;SDS011;3829;50.798;4.358;2022-10-16T03:32:54;2.40;;;1.87;;
7575;SDS011;3829;50.798;4.358;2022-10-16T03:35:21;6.27;;;2.10;;
7575;SDS011;3829;50.798;4.358;2022-10-16T03:37:46;3.77;;;2.20;;
7575;SDS011;3829;50.798;4.358;2022-10-16T03:40:12;4.17;;;1.87;;
7575;SDS011;3829;50.798;4.358;2022-10-16T03:42:38;8.17;;;1.80;;
7575;SDS011;3829;50.798;4.358;2022-10-16T03:45:04;4.00;;;2.20;;
7575;SDS011;3829;50.798;4.358;2022-10-16T03:47:30;2.33;;;1.73;;
7575;SDS011;3829;50.798;4.358;2022-10-16T03:49:57;3.10;;;1.67;;
7575;SDS011;3829;50.798;4.358;2022-10-16T03:52:23;3.10;;;1.97;;
7575;SDS011;3829;50.798;4.358;2022-10-16T03:54:49;3.60;;;2.03;;
7575;SDS011;3829;50.798;4.358;2022-10-16T03:57:14;3.57;;;2.17;;
7575;SDS011;3829;50.798;4.358;2022-10-16T03:59:40;2.73;;;1.80;;
7575;SDS011;3829;50.798;4.358;2022-10-16T04:02:05;6.00;;;2.13;;
7575;SDS011;3829;50.798;4.358;2022-10-16T04:04:31;6.17;;;2.00;;
7575;SDS011;3829;50.798;4.358;2022-10-16T04:06:57;5.80;;;2.43;;
7575;SDS011;3829;50.798;4.358;2022-10-16T04:09:22;3.43;;;2.37;;
7575;SDS011;3829;50.798;4.358;2022-10-16T04:11:48;2.40;;;2.00;;
7575;SDS011;3829;50.798;4.358;2022-10-16T04:14:13;3.67;;;1.90;;
7575;SDS011;3829;50.798;4.358;2022-10-16T04:16:39;4.17;;;1.87;;
7575;SDS011;3829;50.798;4.358;2022-10-16T04:19:05;2.30;;;1.77;;
7575;SDS011;3829;50.798;4.358;2022-10-16T04:21:30;7.10;;;2.50;;
7575;SDS011;3829;50.798;4.358;2022-10-16T04:23:56;3.70;;;2.17;;
7575;SDS011;3829;50.798;4.358;2022-10-16T04:26:21;6.37;;;2.13;;
7575;SDS011;3829;50.798;4.358;2022-10-16T04:28:47;8.77;;;3.03;;
7575;SDS011;3829;50.798;4.358;2022-10-16T04:31:12;4.43;;;2.00;;
7575;SDS011;3829;50.798;4.358;2022-10-16T04:33:38;3.77;;;1.80;;
7575;SDS011;3829;50.798;4.358;2022-10-16T04:36:04;2.10;;;1.80;;
7575;SDS011;3829;50.798;4.358;2022-10-16T04:38:29;2.47;;;1.90;;
7575;SDS011;3829;50.798;4.358;2022-10-16T04:40:55;6.27;;;2.00;;
7575;SDS011;3829;50.798;4.358;2022-10-16T04:43:21;2.07;;;1.83;;
7575;SDS011;3829;50.798;4.358;2022-10-16T04:45:47;3.80;;;1.80;;
7575;SDS011;3829;50.798;4.358;2022-10-16T04:48:15;5.93;;;1.90;;
7575;SDS011;3829;50.798;4.358;2022-10-16T04:50:41;5.77;;;2.00;;
7575;SDS011;3829;50.798;4.358;2022-10-16T04:53:06;3.17;;;2.00;;
7575;SDS011;3829;50.798;4.358;2022-10-16T04:55:32;3.53;;;1.87;;
7575;SDS011;3829;50.798;4.358;2022-10-16T04:57:58;4.50;;;2.50;;
7575;SDS011;3829;50.798;4.358;2022-10-16T05:00:23;2.83;;;2.10;;
7575;SDS011;3829;50.798;4.358;2022-10-16T05:02:49;3.43;;;2.00;;
7575;SDS011;3829;50.798;4.358;2022-10-16T05:05:15;5.93;;;3.13;;
7575;SDS011;3829;50.798;4.358;2022-10-16T05:07:41;4.90;;;2.23;;
7575;SDS011;3829;50.798;4.358;2022-10-16T05:10:06;5.10;;;2.40;;
7575;SDS011;3829;50.798;4.358;2022-10-16T05:12:32;5.70;;;2.20;;
7575;SDS011;3829;50.798;4.358;2022-10-16T05:14:58;3.40;;;2.10;;
7575;SDS011;3829;50.798;4.358;2022-10-16T05:17:24;4.40;;;2.13;;
7575;SDS011;3829;50.798;4.358;2022-10-16T05:19:50;4.00;;;2.20;;
7575;SDS011;3829;50.798;4.358;2022-10-16T05:22:15;2.50;;;2.20;;
7575;SDS011;3829;50.798;4.358;2022-10-16T05:24:41;6.30;;;2.73;;
7575;SDS011;3829;50.798;4.358;2022-10-16T05:27:07;6.83;;;2.33;;
7575;SDS011;3829;50.798;4.358;2022-10-16T05:29:32;8.90;;;2.70;;
7575;SDS011;3829;50.798;4.358;2022-10-16T05:31:58;3.27;;;2.60;;
7575;SDS011;3829;50.798;4.358;2022-10-16T05:34:23;3.83;;;2.30;;
7575;SDS011;3829;50.798;4.358;2022-10-16T05:36:49;5.57;;;2.77;;
7575;SDS011;3829;50.798;4.358;2022-10-16T05:39:15;3.40;;;2.63;;
7575;SDS011;3829;50.798;4.358;2022-10-16T05:41:41;7.07;;;2.10;;
7575;SDS011;3829;50.798;4.358;2022-10-16T05:44:07;7.23;;;2.60;;
7575;SDS011;3829;50.798;4.358;2022-10-16T05:46:33;9.43;;;2.73;;
7575;SDS011;3829;50.798;4.358;2022-10-16T05:48:58;4.93;;;2.60;;
7575;SDS011;3829;50.798;4.358;2022-10-16T05:51:24;4.90;;;2.30;;
7575;SDS011;3829;50.798;4.358;2022-10-16T05:53:50;4.77;;;2.30;;
7575;SDS011;3829;50.798;4.358;2022-10-16T05:56:16;4.37;;;2.43;;
7575;SDS011;3829;50.798;4.358;2022-10-16T05:58:42;5.80;;;2.60;;
7575;SDS011;3829;50.798;4.358;2022-10-16T06:01:11;7.33;;;2.50;;
7575;SDS011;3829;50.798;4.358;2022-10-16T06:03:38;5.30;;;2.20;;
7575;SDS011;3829;50.798;4.358;2022-10-16T06:06:11;6.43;;;2.17;;
7575;SDS011;3829;50.798;4.358;2022-10-16T06:08:48;5.23;;;2.80;;
7575;SDS011;3829;50.798;4.358;2022-10-16T06:11:18;5.90;;;2.70;;
7575;SDS011;3829;50.798;4.358;2022-10-16T06:13:48;3.07;;;2.13;;
7575;SDS011;3829;50.798;4.358;2022-10-16T06:16:15;3.13;;;2.13;;
7575;SDS011;3829;50.798;4.358;2022-10-16T06:18:40;5.03;;;2.50;;
7575;SDS011;3829;50.798;4.358;2022-10-16T06:21:07;7.80;;;2.50;;
7575;SDS011;3829;50.798;4.358;2022-10-16T06:23:37;3.70;;;2.60;;
7575;SDS011;3829;50.798;4.358;2022-10-16T06:26:09;4.33;;;2.37;;
7575;SDS011;3829;50.798;4.358;2022-10-16T06:28:36;3.87;;;2.57;;
7575;SDS011;3829;50.798;4.358;2022-10-16T06:31:03;3.63;;;2.20;;
7575;SDS011;3829;50.798;4.358;2022-10-16T06:33:29;7.40;;;3.27;;
7575;SDS011;3829;50.798;4.358;2022-10-16T06:36:12;5.73;;;2.20;;
7575;SDS011;3829;50.798;4.358;2022-10-16T06:38:39;4.33;;;2.27;;
7575;SDS011;3829;50.798;4.358;2022-10-16T06:41:05;6.33;;;2.37;;
7575;SDS011;3829;50.798;4.358;2022-10-16T06:43:32;7.77;;;2.60;;
7575;SDS011;3829;50.798;4.358;2022-10-16T06:45:58;5.10;;;2.17;;
7575;SDS011;3829;50.798;4.358;2022-10-16T06:48:24;4.93;;;2.20;;
7575;SDS011;3829;50.798;4.358;2022-10-16T06:51:00;3.97;;;1.83;;
7575;SDS011;3829;50.798;4.358;2022-10-16T06:53:28;4.73;;;1.90;;
7575;SDS011;3829;50.798;4.358;2022-10-16T06:55:56;3.67;;;2.30;;
7575;SDS011;3829;50.798;4.358;2022-10-16T06:58:22;3.70;;;1.90;;
7575;SDS011;3829;50.798;4.358;2022-10-16T07:00:48;4.00;;;2.03;;
7575;SDS011;3829;50.798;4.358;2022-10-16T07:03:14;3.47;;;1.70;;
7575;SDS011;3829;50.798;4.358;2022-10-16T07:05:40;7.03;;;1.80;;
7575;SDS011;3829;50.798;4.358;2022-10-16T07:08:06;3.27;;;1.87;;
7575;SDS011;3829;50.798;4.358;2022-10-16T07:10:33;3.20;;;1.97;;
7575;SDS011;3829;50.798;4.358;2022-10-16T07:12:59;5.30;;;2.17;;
7575;SDS011;3829;50.798;4.358;2022-10-16T07:15:25;5.73;;;2.47;;
7575;SDS011;3829;50.798;4.358;2022-10-16T07:17:51;4.83;;;1.90;;
7575;SDS011;3829;50.798;4.358;2022-10-16T07:20:16;7.37;;;1.90;;
7575;SDS011;3829;50.798;4.358;2022-10-16T07:22:42;4.30;;;2.00;;
7575;SDS011;3829;50.798;4.358;2022-10-16T07:25:08;5.17;;;1.70;;
7575;SDS011;3829;50.798;4.358;2022-10-16T07:27:34;2.80;;;1.77;;
7575;SDS011;3829;50.798;4.358;2022-10-16T07:30:00;3.97;;;1.93;;
7575;SDS011;3829;50.798;4.358;2022-10-16T07:32:26;6.90;;;2.23;;
7575;SDS011;3829;50.798;4.358;2022-10-16T07:34:52;6.23;;;2.07;;
7575;SDS011;3829;50.798;4.358;2022-10-16T07:37:18;5.33;;;2.03;;
7575;SDS011;3829;50.798;4.358;2022-10-16T07:39:44;3.77;;;1.90;;
7575;SDS011;3829;50.798;4.358;2022-10-16T07:42:09;4.23;;;1.80;;
7575;SDS011;3829;50.798;4.358;2022-10-16T07:44:35;4.93;;;2.10;;
7575;SDS011;3829;50.798;4.358;2022-10-16T07:47:01;4.87;;;2.10;;
7575;SDS011;3829;50.798;4.358;2022-10-16T07:49:26;4.43;;;2.00;;
7575;SDS011;3829;50.798;4.358;2022-10-16T07:51:52;2.80;;;2.00;;
7575;SDS011;3829;50.798;4.358;2022-10-16T07:54:18;4.83;;;2.07;;
7575;SDS011;3829;50.798;4.358;2022-10-16T07:56:44;3.93;;;1.70;;
7575;SDS011;3829;50.798;4.358;2022-10-16T07:59:09;4.37;;;2.00;;
7575;SDS011;3829;50.798;4.358;2022-10-16T08:01:35;4.33;;;1.90;;
7575;SDS011;3829;50.798;4.358;2022-10-16T08:04:02;5.87;;;2.40;;
7575;SDS011;3829;50.798;4.358;2022-10-16T08:06:27;3.47;;;1.73;;
7575;SDS011;3829;50.798;4.358;2022-10-16T08:08:53;4.03;;;2.07;;
7575;SDS011;3829;50.798;4.358;2022-10-16T08:11:20;3.60;;;1.93;;
7575;SDS011;3829;50.798;4.358;2022-10-16T08:13:46;6.93;;;2.20;;
7575;SDS011;3829;50.798;4.358;2022-10-16T08:16:11;4.80;;;2.13;;
7575;SDS011;3829;50.798;4.358;2022-10-16T08:18:38;6.40;;;2.23;;
7575;SDS011;3829;50.798;4.358;2022-10-16T08:21:05;2.43;;;1.63;;
7575;SDS011;3829;50.798;4.358;2022-10-16T08:23:31;7.10;;;2.17;;
7575;SDS011;3829;50.798;4.358;2022-10-16T08:26:01;8.37;;;2.37;;
7575;SDS011;3829;50.798;4.358;2022-10-16T08:28:29;9.53;;;1.93;;
7575;SDS011;3829;50.798;4.358;2022-10-16T08:30:54;6.73;;;1.73;;
7575;SDS011;3829;50.798;4.358;2022-10-16T08:33:21;6.53;;;1.93;;
7575;SDS011;3829;50.798;4.358;2022-10-16T08:35:53;3.13;;;1.80;;
7575;SDS011;3829;50.798;4.358;2022-10-16T08:38:19;5.57;;;1.63;;
7575;SDS011;3829;50.798;4.358;2022-10-16T08:40:45;6.37;;;2.03;;
7575;SDS011;3829;50.798;4.358;2022-10-16T08:43:35;5.90;;;1.90;;
7575;SDS011;3829;50.798;4.358;2022-10-16T08:49:05;4.70;;;1.80;;
7575;SDS011;3829;50.798;4.358;2022-10-16T08:51:37;3.43;;;1.60;;
7575;SDS011;3829;50.798;4.358;2022-10-16T08:54:04;2.03;;;1.80;;
7575;SDS011;3829;50.798;4.358;2022-10-16T08:56:31;6.37;;;1.60;;
7575;SDS011;3829;50.798;4.358;2022-10-16T08:58:58;8.23;;;1.90;;
7575;SDS011;3829;50.798;4.358;2022-10-16T09:01:25;4.77;;;1.77;;
7575;SDS011;3829;50.798;4.358;2022-10-16T09:04:07;5.77;;;1.67;;
7575;SDS011;3829;50.798;4.358;2022-10-16T09:07:41;2.43;;;1.53;;
7575;SDS011;3829;50.798;4.358;2022-10-16T09:15:16;5.77;;;1.70;;
7575;SDS011;3829;50.798;4.358;2022-10-16T09:21:14;7.10;;;1.70;;
7575;SDS011;3829;50.798;4.358;2022-10-16T09:23:44;8.53;;;1.60;;
7575;SDS011;3829;50.798;4.358;2022-10-16T09:26:11;7.13;;;1.83;;
7575;SDS011;3829;50.798;4.358;2022-10-16T09:28:38;7.30;;;2.60;;
7575;SDS011;3829;50.798;4.358;2022-10-16T09:31:04;5.50;;;1.93;;
7575;SDS011;3829;50.798;4.358;2022-10-16T09:33:33;5.87;;;1.80;;
7575;SDS011;3829;50.798;4.358;2022-10-16T09:36:03;7.37;;;1.70;;
7575;SDS011;3829;50.798;4.358;2022-10-16T09:38:31;5.27;;;1.33;;
7575;SDS011;3829;50.798;4.358;2022-10-16T09:40:59;5.03;;;1.40;;
7575;SDS011;3829;50.798;4.358;2022-10-16T09:43:40;5.33;;;1.60;;
7575;SDS011;3829;50.798;4.358;2022-10-16T09:46:22;4.40;;;1.47;;
7575;SDS011;3829;50.798;4.358;2022-10-16T09:49:04;4.07;;;1.70;;
7575;SDS011;3829;50.798;4.358;2022-10-16T09:51:45;6.03;;;1.50;;
7575;SDS011;3829;50.798;4.358;2022-10-16T09:54:13;3.57;;;1.40;;
7575;SDS011;3829;50.798;4.358;2022-10-16T09:56:40;2.20;;;1.30;;
7575;SDS011;3829;50.798;4.358;2022-10-16T09:59:14;5.60;;;1.30;;
7575;SDS011;3829;50.798;4.358;2022-10-16T10:01:42;2.53;;;1.37;;
7575;SDS011;3829;50.798;4.358;2022-10-16T10:04:17;5.37;;;1.40;;
7575;SDS011;3829;50.798;4.358;2022-10-16T10:06:51;4.13;;;1.40;;
7575;SDS011;3829;50.798;4.358;2022-10-16T10:09:22;4.83;;;1.70;;
7575;SDS011;3829;50.798;4.358;2022-10-16T10:16:49;3.50;;;1.53;;
7575;SDS011;3829;50.798;4.358;2022-10-16T10:19:20;6.87;;;1.50;;
7575;SDS011;3829;50.798;4.358;2022-10-16T10:21:48;6.13;;;1.37;;
7575;SDS011;3829;50.798;4.358;2022-10-16T10:24:17;2.33;;;1.20;;
7575;SDS011;3829;50.798;4.358;2022-10-16T10:29:46;3.07;;;1.47;;
7575;SDS011;3829;50.798;4.358;2022-10-16T10:35:22;6.57;;;1.53;;
7575;SDS011;3829;50.798;4.358;2022-10-16T10:38:00;3.23;;;1.37;;
7575;SDS011;3829;50.798;4.358;2022-10-16T10:40:51;4.27;;;1.50;;
7575;SDS011;3829;50.798;4.358;2022-10-16T10:43:39;5.70;;;1.53;;
7575;SDS011;3829;50.798;4.358;2022-10-16T11:07:43;4.67;;;1.10;;
7575;SDS011;3829;50.798;4.358;2022-10-16T11:12:42;4.57;;;1.30;;
7575;SDS011;3829;50.798;4.358;2022-10-16T11:15:14;2.50;;;1.20;;
7575;SDS011;3829;50.798;4.358;2022-10-16T11:17:58;3.30;;;1.17;;
7575;SDS011;3829;50.798;4.358;2022-10-16T11:20:43;3.27;;;1.23;;
7575;SDS011;3829;50.798;4.358;2022-10-16T11:26:18;6.43;;;1.40;;
7575;SDS011;3829;50.798;4.358;2022-10-16T11:28:49;2.60;;;1.10;;
7575;SDS011;3829;50.798;4.358;2022-10-16T11:31:32;5.60;;;1.57;;
7575;SDS011;3829;50.798;4.358;2022-10-16T11:34:12;3.33;;;1.20;;
7575;SDS011;3829;50.798;4.358;2022-10-16T11:36:44;7.33;;;1.30;;
7575;SDS011;3829;50.798;4.358;2022-10-16T11:39:34;6.30;;;1.37;;
7575;SDS011;3829;50.798;4.358;2022-10-16T11:42:04;3.73;;;1.13;;
7575;SDS011;3829;50.798;4.358;2022-10-16T11:44:42;3.93;;;1.20;;
7575;SDS011;3829;50.798;4.358;2022-10-16T11:47:41;2.17;;;1.10;;
7575;SDS011;3829;50.798;4.358;2022-10-16T11:56:04;2.57;;;1.20;;
7575;SDS011;3829;50.798;4.358;2022-10-16T12:07:05;2.63;;;0.93;;
7575;SDS011;3829;50.798;4.358;2022-10-16T12:09:34;3.30;;;0.70;;
7575;SDS011;3829;50.798;4.358;2022-10-16T12:12:03;1.60;;;0.83;;
7575;SDS011;3829;50.798;4.358;2022-10-16T12:17:00;3.43;;;1.17;;
7575;SDS011;3829;50.798;4.358;2022-10-16T12:19:56;4.23;;;1.00;;
7575;SDS011;3829;50.798;4.358;2022-10-16T12:22:27;6.27;;;1.43;;
7575;SDS011;3829;50.798;4.358;2022-10-16T12:24:55;2.90;;;1.00;;
7575;SDS011;3829;50.798;4.358;2022-10-16T12:27:30;1.17;;;0.90;;
7575;SDS011;3829;50.798;4.358;2022-10-16T12:30:01;3.90;;;1.33;;
7575;SDS011;3829;50.798;4.358;2022-10-16T12:32:34;2.47;;;0.90;;
7575;SDS011;3829;50.798;4.358;2022-10-16T12:35:02;1.80;;;0.80;;
7575;SDS011;3829;50.798;4.358;2022-10-16T12:39:58;3.00;;;1.00;;
7575;SDS011;3829;50.798;4.358;2022-10-16T12:42:35;4.93;;;1.23;;
7575;SDS011;3829;50.798;4.358;2022-10-16T12:45:12;4.30;;;1.10;;
7575;SDS011;3829;50.798;4.358;2022-10-16T12:48:02;3.30;;;0.93;;
7575;SDS011;3829;50.798;4.358;2022-10-16T12:50:43;2.27;;;1.00;;
7575;SDS011;3829;50.798;4.358;2022-10-16T12:53:22;2.17;;;0.90;;
7575;SDS011;3829;50.798;4.358;2022-10-16T12:56:04;4.13;;;1.10;;
7575;SDS011;3829;50.798;4.358;2022-10-16T13:06:53;1.23;;;0.90;;
7575;SDS011;3829;50.798;4.358;2022-10-16T13:09:52;5.03;;;1.13;;
7575;SDS011;3829;50.798;4.358;2022-10-16T13:23:58;4.77;;;1.27;;
7575;SDS011;3829;50.798;4.358;2022-10-16T13:26:51;4.23;;;1.00;;
7575;SDS011;3829;50.798;4.358;2022-10-16T13:29:29;4.40;;;1.30;;
7575;SDS011;3829;50.798;4.358;2022-10-16T13:31:57;3.47;;;1.20;;
7575;SDS011;3829;50.798;4.358;2022-10-16T13:34:23;6.20;;;1.30;;
7575;SDS011;3829;50.798;4.358;2022-10-16T13:36:51;2.53;;;0.97;;
7575;SDS011;3829;50.798;4.358;2022-10-16T13:39:22;4.33;;;1.60;;
7575;SDS011;3829;50.798;4.358;2022-10-16T13:42:01;3.60;;;1.10;;
7575;SDS011;3829;50.798;4.358;2022-10-16T13:44:30;3.43;;;1.10;;
7575;SDS011;3829;50.798;4.358;2022-10-16T13:47:02;4.30;;;1.50;;
7575;SDS011;3829;50.798;4.358;2022-10-16T13:49:27;1.33;;;0.80;;
7575;SDS011;3829;50.798;4.358;2022-10-16T13:51:54;4.73;;;1.17;;
7575;SDS011;3829;50.798;4.358;2022-10-16T13:54:25;2.73;;;1.13;;
7575;SDS011;3829;50.798;4.358;2022-10-16T13:56:51;2.63;;;1.00;;
7575;SDS011;3829;50.798;4.358;2022-10-16T13:59:32;5.77;;;1.17;;
7575;SDS011;3829;50.798;4.358;2022-10-16T14:01:59;1.60;;;0.93;;
7575;SDS011;3829;50.798;4.358;2022-10-16T14:04:31;4.57;;;1.00;;
7575;SDS011;3829;50.798;4.358;2022-10-16T14:06:58;3.77;;;1.10;;
7575;SDS011;3829;50.798;4.358;2022-10-16T14:09:27;1.97;;;1.00;;
7575;SDS011;3829;50.798;4.358;2022-10-16T14:12:01;4.00;;;1.30;;
7575;SDS011;3829;50.798;4.358;2022-10-16T14:14:39;2.83;;;0.90;;
7575;SDS011;3829;50.798;4.358;2022-10-16T14:17:12;2.87;;;1.00;;
7575;SDS011;3829;50.798;4.358;2022-10-16T14:19:47;4.00;;;1.10;;
7575;SDS011;3829;50.798;4.358;2022-10-16T14:24:49;2.53;;;1.30;;
7575;SDS011;3829;50.798;4.358;2022-10-16T14:27:27;2.53;;;1.00;;
7575;SDS011;3829;50.798;4.358;2022-10-16T14:32:33;6.27;;;1.43;;
7575;SDS011;3829;50.798;4.358;2022-10-16T14:34:58;2.53;;;1.23;;
7575;SDS011;3829;50.798;4.358;2022-10-16T14:37:25;2.47;;;1.03;;
7575;SDS011;3829;50.798;4.358;2022-10-16T14:39:53;3.00;;;1.30;;
7575;SDS011;3829;50.798;4.358;2022-10-16T14:42:20;6.03;;;1.40;;
7575;SDS011;3829;50.798;4.358;2022-10-16T14:44:50;3.50;;;1.37;;
7575;SDS011;3829;50.798;4.358;2022-10-16T14:47:22;1.87;;;1.27;;
7575;SDS011;3829;50.798;4.358;2022-10-16T14:49:51;3.93;;;1.50;;
7575;SDS011;3829;50.798;4.358;2022-10-16T14:52:20;3.20;;;1.10;;
7575;SDS011;3829;50.798;4.358;2022-10-16T14:54:49;4.83;;;1.50;;
7575;SDS011;3829;50.798;4.358;2022-10-16T14:57:18;3.07;;;1.30;;
7575;SDS011;3829;50.798;4.358;2022-10-16T14:59:46;2.97;;;1.53;;
7575;SDS011;3829;50.798;4.358;2022-10-16T15:04:48;4.33;;;1.40;;
7575;SDS011;3829;50.798;4.358;2022-10-16T15:07:14;3.53;;;1.87;;
7575;SDS011;3829;50.798;4.358;2022-10-16T15:09:39;9.80;;;2.20;;
7575;SDS011;3829;50.798;4.358;2022-10-16T15:12:05;3.43;;;1.53;;
7575;SDS011;3829;50.798;4.358;2022-10-16T15:14:31;4.27;;;1.73;;
7575;SDS011;3829;50.798;4.358;2022-10-16T15:16:56;4.03;;;1.70;;
7575;SDS011;3829;50.798;4.358;2022-10-16T15:19:22;7.40;;;1.93;;
7575;SDS011;3829;50.798;4.358;2022-10-16T15:21:48;4.47;;;1.83;;
7575;SDS011;3829;50.798;4.358;2022-10-16T15:24:14;3.10;;;1.67;;
7575;SDS011;3829;50.798;4.358;2022-10-16T15:26:40;4.40;;;2.30;;
7575;SDS011;3829;50.798;4.358;2022-10-16T15:29:05;3.57;;;1.70;;
7575;SDS011;3829;50.798;4.358;2022-10-16T15:31:31;3.30;;;1.40;;
7575;SDS011;3829;50.798;4.358;2022-10-16T15:33:57;6.50;;;1.83;;
7575;SDS011;3829;50.798;4.358;2022-10-16T15:36:30;6.20;;;1.50;;
7575;SDS011;3829;50.798;4.358;2022-10-16T15:39:02;6.73;;;1.57;;
7575;SDS011;3829;50.798;4.358;2022-10-16T15:41:28;4.97;;;1.60;;
7575;SDS011;3829;50.798;4.358;2022-10-16T15:43:54;4.63;;;1.40;;
7575;SDS011;3829;50.798;4.358;2022-10-16T15:46:20;2.67;;;1.80;;
7575;SDS011;3829;50.798;4.358;2022-10-16T15:48:48;2.87;;;1.30;;
7575;SDS011;3829;50.798;4.358;2022-10-16T15:51:15;2.47;;;1.30;;
7575;SDS011;3829;50.798;4.358;2022-10-16T15:53:41;5.90;;;1.30;;
7575;SDS011;3829;50.798;4.358;2022-10-16T15:56:07;5.37;;;2.33;;
7575;SDS011;3829;50.798;4.358;2022-10-16T15:58:34;5.47;;;3.07;;
7575;SDS011;3829;50.798;4.358;2022-10-16T16:01:00;6.37;;;3.93;;
7575;SDS011;3829;50.798;4.358;2022-10-16T16:03:28;8.73;;;3.07;;
7575;SDS011;3829;50.798;4.358;2022-10-16T16:05:54;5.27;;;3.10;;
7575;SDS011;3829;50.798;4.358;2022-10-16T16:08:20;7.57;;;3.60;;
7575;SDS011;3829;50.798;4.358;2022-10-16T16:10:47;7.23;;;2.97;;
7575;SDS011;3829;50.798;4.358;2022-10-16T16:13:29;4.67;;;2.40;;
7575;SDS011;3829;50.798;4.358;2022-10-16T16:15:55;7.20;;;2.60;;
7575;SDS011;3829;50.798;4.358;2022-10-16T16:18:21;3.73;;;2.00;;
7575;SDS011;3829;50.798;4.358;2022-10-16T16:20:47;2.33;;;2.00;;
7575;SDS011;3829;50.798;4.358;2022-10-16T16:23:13;6.67;;;2.20;;
7575;SDS011;3829;50.798;4.358;2022-10-16T16:25:39;5.53;;;2.60;;
7575;SDS011;3829;50.798;4.358;2022-10-16T16:28:04;7.40;;;2.43;;
7575;SDS011;3829;50.798;4.358;2022-10-16T16:30:32;7.13;;;2.90;;
7575;SDS011;3829;50.798;4.358;2022-10-16T16:32:57;7.87;;;2.83;;
7575;SDS011;3829;50.798;4.358;2022-10-16T16:35:23;6.33;;;2.70;;
7575;SDS011;3829;50.798;4.358;2022-10-16T16:37:48;6.40;;;2.43;;
7575;SDS011;3829;50.798;4.358;2022-10-16T16:40:14;12.07;;;3.07;;
7575;SDS011;3829;50.798;4.358;2022-10-16T16:42:40;7.67;;;2.60;;
7575;SDS011;3829;50.798;4.358;2022-10-16T16:45:05;5.43;;;1.70;;
7575;SDS011;3829;50.798;4.358;2022-10-16T16:47:31;3.97;;;1.83;;
7575;SDS011;3829;50.798;4.358;2022-10-16T16:49:57;2.73;;;1.60;;
7575;SDS011;3829;50.798;4.358;2022-10-16T16:52:22;3.03;;;1.80;;
7575;SDS011;3829;50.798;4.358;2022-10-16T16:54:48;4.70;;;1.70;;
7575;SDS011;3829;50.798;4.358;2022-10-16T16:57:17;3.83;;;1.93;;
7575;SDS011;3829;50.798;4.358;2022-10-16T16:59:44;4.17;;;1.97;;
7575;SDS011;3829;50.798;4.358;2022-10-16T17:02:10;7.20;;;2.10;;
7575;SDS011;3829;50.798;4.358;2022-10-16T17:04:35;7.83;;;3.33;;
7575;SDS011;3829;50.798;4.358;2022-10-16T17:07:01;9.20;;;3.13;;
7575;SDS011;3829;50.798;4.358;2022-10-16T17:09:26;11.50;;;3.10;;
7575;SDS011;3829;50.798;4.358;2022-10-16T17:11:52;6.23;;;2.53;;
7575;SDS011;3829;50.798;4.358;2022-10-16T17:14:18;9.93;;;2.83;;
7575;SDS011;3829;50.798;4.358;2022-10-16T17:16:43;8.93;;;2.90;;